sensor_id;sensor_type;location;lat;lon;timestamp;P1;durP1;ratioP1;P2;durP2;ratioP2
16127;SDS011;8168;49.036;7.690;2022-07-26T00:01:28;1.07;;;1.07;;
16127;SDS011;8168;49.036;7.690;2022-07-26T00:03:59;1.00;;;0.90;;
16127;SDS011;8168;49.036;7.690;2022-07-26T00:06:30;2.22;;;1.00;;
16127;SDS011;8168;49.036;7.690;2022-07-26T00:09:01;1.33;;;1.05;;
16127;SDS011;8168;49.036;7.690;2022-07-26T00:11:32;1.55;;;1.00;;
16127;SDS011;8168;49.036;7.690;2022-07-26T00:14:04;1.00;;;0.90;;
16127;SDS011;8168;49.036;7.690;2022-07-26T00:16:36;1.20;;;1.10;;
16127;SDS011;8168;49.036;7.690;2022-07-26T00:19:06;1.10;;;1.00;;
16127;SDS011;8168;49.036;7.690;2022-07-26T00:21:37;3.38;;;1.10;;
16127;SDS011;8168;49.036;7.690;2022-07-26T00:24:08;1.00;;;1.00;;
16127;SDS011;8168;49.036;7.690;2022-07-26T00:26:38;3.37;;;1.20;;
16127;SDS011;8168;49.036;7.690;2022-07-26T00:29:09;1.00;;;1.00;;
16127;SDS011;8168;49.036;7.690;2022-07-26T00:31:40;1.10;;;1.00;;
16127;SDS011;8168;49.036;7.690;2022-07-26T00:34:11;1.20;;;1.10;;
16127;SDS011;8168;49.036;7.690;2022-07-26T00:36:41;1.47;;;1.10;;
16127;SDS011;8168;49.036;7.690;2022-07-26T00:39:13;1.20;;;1.10;;
16127;SDS011;8168;49.036;7.690;2022-07-26T00:41:43;1.20;;;1.10;;
16127;SDS011;8168;49.036;7.690;2022-07-26T00:44:14;1.63;;;1.20;;
16127;SDS011;8168;49.036;7.690;2022-07-26T00:46:46;3.45;;;1.52;;
16127;SDS011;8168;49.036;7.690;2022-07-26T00:49:16;1.23;;;1.10;;
16127;SDS011;8168;49.036;7.690;2022-07-26T00:51:47;1.10;;;1.10;;
16127;SDS011;8168;49.036;7.690;2022-07-26T00:54:17;2.73;;;1.27;;
16127;SDS011;8168;49.036;7.690;2022-07-26T00:56:48;1.30;;;1.20;;
16127;SDS011;8168;49.036;7.690;2022-07-26T00:59:19;3.83;;;1.30;;
16127;SDS011;8168;49.036;7.690;2022-07-26T01:01:50;1.73;;;1.10;;
16127;SDS011;8168;49.036;7.690;2022-07-26T01:04:20;2.57;;;1.23;;
16127;SDS011;8168;49.036;7.690;2022-07-26T01:06:51;2.60;;;1.20;;
16127;SDS011;8168;49.036;7.690;2022-07-26T01:09:22;2.10;;;1.33;;
16127;SDS011;8168;49.036;7.690;2022-07-26T01:11:53;1.30;;;1.20;;
16127;SDS011;8168;49.036;7.690;2022-07-26T01:14:24;1.20;;;1.10;;
16127;SDS011;8168;49.036;7.690;2022-07-26T01:16:55;1.47;;;1.37;;
16127;SDS011;8168;49.036;7.690;2022-07-26T01:19:26;2.20;;;1.30;;
16127;SDS011;8168;49.036;7.690;2022-07-26T01:21:56;1.60;;;1.20;;
16127;SDS011;8168;49.036;7.690;2022-07-26T01:24:28;1.57;;;1.27;;
16127;SDS011;8168;49.036;7.690;2022-07-26T01:26:59;1.60;;;1.20;;
16127;SDS011;8168;49.036;7.690;2022-07-26T01:29:29;1.23;;;1.20;;
16127;SDS011;8168;49.036;7.690;2022-07-26T01:32:00;5.13;;;1.30;;
16127;SDS011;8168;49.036;7.690;2022-07-26T01:34:33;1.97;;;1.03;;
16127;SDS011;8168;49.036;7.690;2022-07-26T01:37:03;1.60;;;1.20;;
16127;SDS011;8168;49.036;7.690;2022-07-26T01:39:35;1.37;;;1.27;;
16127;SDS011;8168;49.036;7.690;2022-07-26T01:42:05;1.27;;;1.10;;
16127;SDS011;8168;49.036;7.690;2022-07-26T01:44:36;4.83;;;1.20;;
16127;SDS011;8168;49.036;7.690;2022-07-26T01:47:06;1.20;;;1.10;;
16127;SDS011;8168;49.036;7.690;2022-07-26T01:49:37;1.33;;;1.23;;
16127;SDS011;8168;49.036;7.690;2022-07-26T01:52:08;2.87;;;1.40;;
16127;SDS011;8168;49.036;7.690;2022-07-26T01:54:38;1.30;;;1.20;;
16127;SDS011;8168;49.036;7.690;2022-07-26T01:57:09;1.30;;;1.20;;
16127;SDS011;8168;49.036;7.690;2022-07-26T01:59:40;1.20;;;1.10;;
16127;SDS011;8168;49.036;7.690;2022-07-26T02:02:10;1.20;;;1.10;;
16127;SDS011;8168;49.036;7.690;2022-07-26T02:04:41;1.40;;;1.30;;
16127;SDS011;8168;49.036;7.690;2022-07-26T02:07:31;1.33;;;1.20;;
16127;SDS011;8168;49.036;7.690;2022-07-26T02:10:07;3.00;;;1.27;;
16127;SDS011;8168;49.036;7.690;2022-07-26T02:12:39;3.43;;;1.37;;
16127;SDS011;8168;49.036;7.690;2022-07-26T02:15:10;1.30;;;1.20;;
16127;SDS011;8168;49.036;7.690;2022-07-26T02:17:43;1.20;;;1.10;;
16127;SDS011;8168;49.036;7.690;2022-07-26T02:20:13;1.37;;;1.27;;
16127;SDS011;8168;49.036;7.690;2022-07-26T02:22:45;1.40;;;1.30;;
16127;SDS011;8168;49.036;7.690;2022-07-26T02:25:16;1.80;;;1.43;;
16127;SDS011;8168;49.036;7.690;2022-07-26T02:27:47;1.40;;;1.30;;
16127;SDS011;8168;49.036;7.690;2022-07-26T02:30:17;3.00;;;1.37;;
16127;SDS011;8168;49.036;7.690;2022-07-26T02:32:48;1.40;;;1.30;;
16127;SDS011;8168;49.036;7.690;2022-07-26T02:35:19;1.60;;;1.40;;
16127;SDS011;8168;49.036;7.690;2022-07-26T02:37:50;1.20;;;1.10;;
16127;SDS011;8168;49.036;7.690;2022-07-26T02:40:21;1.50;;;1.40;;
16127;SDS011;8168;49.036;7.690;2022-07-26T02:42:52;2.53;;;1.37;;
16127;SDS011;8168;49.036;7.690;2022-07-26T02:45:22;1.30;;;1.20;;
16127;SDS011;8168;49.036;7.690;2022-07-26T02:47:54;2.00;;;1.50;;
16127;SDS011;8168;49.036;7.690;2022-07-26T02:50:26;2.17;;;1.40;;
16127;SDS011;8168;49.036;7.690;2022-07-26T02:52:58;1.63;;;1.23;;
16127;SDS011;8168;49.036;7.690;2022-07-26T02:55:28;2.63;;;1.27;;
16127;SDS011;8168;49.036;7.690;2022-07-26T02:57:59;2.50;;;1.50;;
16127;SDS011;8168;49.036;7.690;2022-07-26T03:00:29;1.47;;;1.37;;
16127;SDS011;8168;49.036;7.690;2022-07-26T03:03:00;1.40;;;1.30;;
16127;SDS011;8168;49.036;7.690;2022-07-26T03:05:31;4.40;;;1.43;;
16127;SDS011;8168;49.036;7.690;2022-07-26T03:08:01;1.53;;;1.43;;
16127;SDS011;8168;49.036;7.690;2022-07-26T03:10:32;1.50;;;1.40;;
16127;SDS011;8168;49.036;7.690;2022-07-26T03:13:03;1.93;;;1.30;;
16127;SDS011;8168;49.036;7.690;2022-07-26T03:15:33;2.57;;;1.40;;
16127;SDS011;8168;49.036;7.690;2022-07-26T03:18:04;2.13;;;1.60;;
16127;SDS011;8168;49.036;7.690;2022-07-26T03:20:34;1.60;;;1.47;;
16127;SDS011;8168;49.036;7.690;2022-07-26T03:23:05;1.73;;;1.50;;
16127;SDS011;8168;49.036;7.690;2022-07-26T03:25:36;1.40;;;1.30;;
16127;SDS011;8168;49.036;7.690;2022-07-26T03:28:06;1.30;;;1.20;;
16127;SDS011;8168;49.036;7.690;2022-07-26T03:30:37;1.40;;;1.30;;
16127;SDS011;8168;49.036;7.690;2022-07-26T03:33:08;1.53;;;1.43;;
16127;SDS011;8168;49.036;7.690;2022-07-26T03:35:38;2.23;;;1.60;;
16127;SDS011;8168;49.036;7.690;2022-07-26T03:38:09;1.90;;;1.50;;
16127;SDS011;8168;49.036;7.690;2022-07-26T03:40:39;2.87;;;1.50;;
16127;SDS011;8168;49.036;7.690;2022-07-26T03:43:10;2.53;;;1.30;;
16127;SDS011;8168;49.036;7.690;2022-07-26T03:45:41;2.33;;;1.33;;
16127;SDS011;8168;49.036;7.690;2022-07-26T03:48:11;2.87;;;1.60;;
16127;SDS011;8168;49.036;7.690;2022-07-26T03:50:42;2.83;;;1.53;;
16127;SDS011;8168;49.036;7.690;2022-07-26T03:53:13;2.53;;;1.50;;
16127;SDS011;8168;49.036;7.690;2022-07-26T03:55:43;2.87;;;1.60;;
16127;SDS011;8168;49.036;7.690;2022-07-26T03:58:32;1.63;;;1.53;;
16127;SDS011;8168;49.036;7.690;2022-07-26T04:01:03;2.90;;;1.50;;
16127;SDS011;8168;49.036;7.690;2022-07-26T04:03:34;2.70;;;1.40;;
16127;SDS011;8168;49.036;7.690;2022-07-26T04:06:05;2.40;;;1.40;;
16127;SDS011;8168;49.036;7.690;2022-07-26T04:08:36;2.73;;;1.47;;
16127;SDS011;8168;49.036;7.690;2022-07-26T04:11:06;2.43;;;1.23;;
16127;SDS011;8168;49.036;7.690;2022-07-26T04:13:37;2.23;;;1.53;;
16127;SDS011;8168;49.036;7.690;2022-07-26T04:16:08;1.87;;;1.40;;
16127;SDS011;8168;49.036;7.690;2022-07-26T04:18:38;3.17;;;1.60;;
16127;SDS011;8168;49.036;7.690;2022-07-26T04:21:09;1.33;;;1.23;;
16127;SDS011;8168;49.036;7.690;2022-07-26T04:23:39;3.77;;;1.83;;
16127;SDS011;8168;49.036;7.690;2022-07-26T04:26:10;5.17;;;1.57;;
16127;SDS011;8168;49.036;7.690;2022-07-26T04:28:43;2.33;;;1.90;;
16127;SDS011;8168;49.036;7.690;2022-07-26T04:31:13;7.67;;;1.50;;
16127;SDS011;8168;49.036;7.690;2022-07-26T04:33:44;2.30;;;1.53;;
16127;SDS011;8168;49.036;7.690;2022-07-26T04:36:15;2.77;;;1.33;;
16127;SDS011;8168;49.036;7.690;2022-07-26T04:38:45;2.47;;;1.30;;
16127;SDS011;8168;49.036;7.690;2022-07-26T04:41:16;3.57;;;1.40;;
16127;SDS011;8168;49.036;7.690;2022-07-26T04:43:46;1.63;;;1.20;;
16127;SDS011;8168;49.036;7.690;2022-07-26T04:46:17;3.43;;;1.40;;
16127;SDS011;8168;49.036;7.690;2022-07-26T04:48:48;1.73;;;1.17;;
16127;SDS011;8168;49.036;7.690;2022-07-26T04:51:18;0.90;;;0.90;;
16127;SDS011;8168;49.036;7.690;2022-07-26T04:53:49;1.30;;;1.20;;
16127;SDS011;8168;49.036;7.690;2022-07-26T04:56:20;2.27;;;1.30;;
16127;SDS011;8168;49.036;7.690;2022-07-26T04:58:50;1.20;;;1.00;;
16127;SDS011;8168;49.036;7.690;2022-07-26T05:01:21;3.40;;;1.40;;
16127;SDS011;8168;49.036;7.690;2022-07-26T05:03:52;5.77;;;1.50;;
16127;SDS011;8168;49.036;7.690;2022-07-26T05:06:22;1.03;;;1.03;;
16127;SDS011;8168;49.036;7.690;2022-07-26T05:08:53;2.20;;;1.20;;
16127;SDS011;8168;49.036;7.690;2022-07-26T05:11:24;1.93;;;1.20;;
16127;SDS011;8168;49.036;7.690;2022-07-26T05:13:54;2.23;;;1.50;;
16127;SDS011;8168;49.036;7.690;2022-07-26T05:16:25;2.33;;;1.40;;
16127;SDS011;8168;49.036;7.690;2022-07-26T05:18:56;1.87;;;1.20;;
16127;SDS011;8168;49.036;7.690;2022-07-26T05:21:26;1.80;;;1.30;;
16127;SDS011;8168;49.036;7.690;2022-07-26T05:23:57;1.80;;;1.17;;
16127;SDS011;8168;49.036;7.690;2022-07-26T05:26:28;1.77;;;1.03;;
16127;SDS011;8168;49.036;7.690;2022-07-26T05:28:58;2.23;;;1.30;;
16127;SDS011;8168;49.036;7.690;2022-07-26T05:31:29;3.80;;;1.13;;
16127;SDS011;8168;49.036;7.690;2022-07-26T05:34:00;1.03;;;1.00;;
16127;SDS011;8168;49.036;7.690;2022-07-26T05:36:32;2.90;;;0.97;;
16127;SDS011;8168;49.036;7.690;2022-07-26T05:39:04;3.87;;;0.90;;
16127;SDS011;8168;49.036;7.690;2022-07-26T05:41:34;1.27;;;1.07;;
16127;SDS011;8168;49.036;7.690;2022-07-26T05:44:05;1.47;;;1.00;;
16127;SDS011;8168;49.036;7.690;2022-07-26T05:46:36;1.33;;;0.97;;
16127;SDS011;8168;49.036;7.690;2022-07-26T05:49:06;1.87;;;1.10;;
16127;SDS011;8168;49.036;7.690;2022-07-26T05:51:37;1.47;;;1.10;;
16127;SDS011;8168;49.036;7.690;2022-07-26T05:54:07;1.20;;;1.10;;
16127;SDS011;8168;49.036;7.690;2022-07-26T05:56:38;6.23;;;1.10;;
16127;SDS011;8168;49.036;7.690;2022-07-26T05:59:09;6.10;;;1.10;;
16127;SDS011;8168;49.036;7.690;2022-07-26T06:01:39;1.87;;;1.30;;
16127;SDS011;8168;49.036;7.690;2022-07-26T06:04:10;1.97;;;1.20;;
16127;SDS011;8168;49.036;7.690;2022-07-26T06:06:41;1.13;;;0.90;;
16127;SDS011;8168;49.036;7.690;2022-07-26T06:09:12;1.63;;;1.10;;
16127;SDS011;8168;49.036;7.690;2022-07-26T06:11:43;1.00;;;1.00;;
16127;SDS011;8168;49.036;7.690;2022-07-26T06:14:14;1.63;;;1.13;;
16127;SDS011;8168;49.036;7.690;2022-07-26T06:16:45;2.37;;;0.80;;
16127;SDS011;8168;49.036;7.690;2022-07-26T06:19:16;1.77;;;1.00;;
16127;SDS011;8168;49.036;7.690;2022-07-26T06:21:47;2.93;;;1.10;;
16127;SDS011;8168;49.036;7.690;2022-07-26T06:24:17;2.57;;;1.10;;
16127;SDS011;8168;49.036;7.690;2022-07-26T06:26:48;2.83;;;1.17;;
16127;SDS011;8168;49.036;7.690;2022-07-26T06:29:22;1.20;;;0.93;;
16127;SDS011;8168;49.036;7.690;2022-07-26T06:31:53;1.30;;;1.00;;
16127;SDS011;8168;49.036;7.690;2022-07-26T06:34:23;2.57;;;1.17;;
16127;SDS011;8168;49.036;7.690;2022-07-26T06:36:54;3.13;;;1.07;;
16127;SDS011;8168;49.036;7.690;2022-07-26T06:39:25;3.80;;;1.03;;
16127;SDS011;8168;49.036;7.690;2022-07-26T06:41:55;5.60;;;1.10;;
16127;SDS011;8168;49.036;7.690;2022-07-26T06:44:26;2.53;;;1.10;;
16127;SDS011;8168;49.036;7.690;2022-07-26T06:46:57;2.20;;;0.97;;
16127;SDS011;8168;49.036;7.690;2022-07-26T06:49:27;3.10;;;1.20;;
16127;SDS011;8168;49.036;7.690;2022-07-26T06:51:58;1.33;;;1.03;;
16127;SDS011;8168;49.036;7.690;2022-07-26T06:54:28;0.97;;;0.80;;
16127;SDS011;8168;49.036;7.690;2022-07-26T06:56:59;1.77;;;0.90;;
16127;SDS011;8168;49.036;7.690;2022-07-26T06:59:30;0.80;;;0.70;;
16127;SDS011;8168;49.036;7.690;2022-07-26T07:02:00;1.17;;;1.03;;
16127;SDS011;8168;49.036;7.690;2022-07-26T07:04:31;2.47;;;1.13;;
16127;SDS011;8168;49.036;7.690;2022-07-26T07:07:02;1.60;;;1.10;;
16127;SDS011;8168;49.036;7.690;2022-07-26T07:09:34;1.30;;;1.00;;
16127;SDS011;8168;49.036;7.690;2022-07-26T07:12:06;3.80;;;1.13;;
16127;SDS011;8168;49.036;7.690;2022-07-26T07:14:38;1.23;;;1.00;;
16127;SDS011;8168;49.036;7.690;2022-07-26T07:17:08;1.10;;;0.90;;
16127;SDS011;8168;49.036;7.690;2022-07-26T07:19:39;1.40;;;0.87;;
16127;SDS011;8168;49.036;7.690;2022-07-26T07:22:10;1.33;;;1.20;;
16127;SDS011;8168;49.036;7.690;2022-07-26T07:24:41;2.40;;;1.00;;
16127;SDS011;8168;49.036;7.690;2022-07-26T07:27:12;4.40;;;1.00;;
16127;SDS011;8168;49.036;7.690;2022-07-26T07:29:43;1.37;;;1.00;;
16127;SDS011;8168;49.036;7.690;2022-07-26T07:32:14;0.87;;;0.70;;
16127;SDS011;8168;49.036;7.690;2022-07-26T07:34:46;3.40;;;1.27;;
16127;SDS011;8168;49.036;7.690;2022-07-26T07:37:17;1.40;;;0.77;;
16127;SDS011;8168;49.036;7.690;2022-07-26T07:39:48;2.30;;;0.90;;
16127;SDS011;8168;49.036;7.690;2022-07-26T07:42:18;2.17;;;0.90;;
16127;SDS011;8168;49.036;7.690;2022-07-26T07:44:49;0.80;;;0.80;;
16127;SDS011;8168;49.036;7.690;2022-07-26T07:47:19;1.67;;;1.07;;
16127;SDS011;8168;49.036;7.690;2022-07-26T07:49:51;0.87;;;0.87;;
16127;SDS011;8168;49.036;7.690;2022-07-26T07:52:21;1.77;;;1.10;;
16127;SDS011;8168;49.036;7.690;2022-07-26T07:54:52;1.90;;;0.90;;
16127;SDS011;8168;49.036;7.690;2022-07-26T07:57:23;1.43;;;0.87;;
16127;SDS011;8168;49.036;7.690;2022-07-26T07:59:53;4.47;;;1.03;;
16127;SDS011;8168;49.036;7.690;2022-07-26T08:02:25;0.93;;;0.80;;
16127;SDS011;8168;49.036;7.690;2022-07-26T08:04:55;2.13;;;0.97;;
16127;SDS011;8168;49.036;7.690;2022-07-26T08:07:26;0.97;;;0.80;;
16127;SDS011;8168;49.036;7.690;2022-07-26T08:09:57;2.37;;;1.00;;
16127;SDS011;8168;49.036;7.690;2022-07-26T08:12:28;1.67;;;0.83;;
16127;SDS011;8168;49.036;7.690;2022-07-26T08:14:59;1.93;;;1.10;;
16127;SDS011;8168;49.036;7.690;2022-07-26T08:17:30;0.83;;;0.80;;
16127;SDS011;8168;49.036;7.690;2022-07-26T08:20:00;2.70;;;1.00;;
16127;SDS011;8168;49.036;7.690;2022-07-26T08:22:31;1.00;;;0.90;;
16127;SDS011;8168;49.036;7.690;2022-07-26T08:25:02;2.78;;;0.77;;
16127;SDS011;8168;49.036;7.690;2022-07-26T08:27:33;2.77;;;0.97;;
16127;SDS011;8168;49.036;7.690;2022-07-26T08:30:04;1.40;;;0.80;;
16127;SDS011;8168;49.036;7.690;2022-07-26T08:32:35;0.80;;;0.80;;
16127;SDS011;8168;49.036;7.690;2022-07-26T08:35:06;1.47;;;1.27;;
16127;SDS011;8168;49.036;7.690;2022-07-26T08:37:37;2.27;;;0.80;;
16127;SDS011;8168;49.036;7.690;2022-07-26T08:40:08;1.83;;;1.03;;
16127;SDS011;8168;49.036;7.690;2022-07-26T08:42:39;1.80;;;0.70;;
16127;SDS011;8168;49.036;7.690;2022-07-26T08:45:09;2.53;;;1.00;;
16127;SDS011;8168;49.036;7.690;2022-07-26T08:47:41;1.60;;;1.17;;
16127;SDS011;8168;49.036;7.690;2022-07-26T08:50:12;1.10;;;0.80;;
16127;SDS011;8168;49.036;7.690;2022-07-26T08:52:43;0.90;;;0.87;;
16127;SDS011;8168;49.036;7.690;2022-07-26T08:55:17;1.17;;;0.70;;
16127;SDS011;8168;49.036;7.690;2022-07-26T08:57:49;0.97;;;0.77;;
16127;SDS011;8168;49.036;7.690;2022-07-26T09:00:21;1.77;;;1.10;;
16127;SDS011;8168;49.036;7.690;2022-07-26T09:02:54;2.70;;;1.00;;
16127;SDS011;8168;49.036;7.690;2022-07-26T09:05:33;2.28;;;0.77;;
16127;SDS011;8168;49.036;7.690;2022-07-26T09:08:26;1.73;;;0.83;;
16127;SDS011;8168;49.036;7.690;2022-07-26T09:10:58;1.80;;;0.90;;
16127;SDS011;8168;49.036;7.690;2022-07-26T09:16:34;0.88;;;0.88;;
16127;SDS011;8168;49.036;7.690;2022-07-26T09:21:51;1.80;;;1.00;;
16127;SDS011;8168;49.036;7.690;2022-07-26T09:24:31;1.33;;;1.23;;
16127;SDS011;8168;49.036;7.690;2022-07-26T09:27:05;1.83;;;1.00;;
16127;SDS011;8168;49.036;7.690;2022-07-26T09:29:50;0.70;;;0.70;;
16127;SDS011;8168;49.036;7.690;2022-07-26T09:32:23;1.37;;;0.83;;
16127;SDS011;8168;49.036;7.690;2022-07-26T09:34:56;1.83;;;0.90;;
16127;SDS011;8168;49.036;7.690;2022-07-26T09:37:42;1.67;;;0.80;;
16127;SDS011;8168;49.036;7.690;2022-07-26T09:40:16;1.13;;;0.97;;
16127;SDS011;8168;49.036;7.690;2022-07-26T09:45:24;2.60;;;0.90;;
16127;SDS011;8168;49.036;7.690;2022-07-26T09:47:56;1.60;;;0.90;;
16127;SDS011;8168;49.036;7.690;2022-07-26T09:50:28;1.83;;;0.90;;
16127;SDS011;8168;49.036;7.690;2022-07-26T09:53:02;1.27;;;0.80;;
16127;SDS011;8168;49.036;7.690;2022-07-26T09:58:14;1.13;;;0.80;;
16127;SDS011;8168;49.036;7.690;2022-07-26T10:00:46;1.20;;;1.00;;
16127;SDS011;8168;49.036;7.690;2022-07-26T10:03:16;1.15;;;0.95;;
16127;SDS011;8168;49.036;7.690;2022-07-26T10:05:47;1.92;;;1.02;;
16127;SDS011;8168;49.036;7.690;2022-07-26T10:08:18;1.25;;;0.90;;
16127;SDS011;8168;49.036;7.690;2022-07-26T10:10:53;2.22;;;0.80;;
16127;SDS011;8168;49.036;7.690;2022-07-26T10:13:31;1.15;;;0.90;;
16127;SDS011;8168;49.036;7.690;2022-07-26T10:16:01;0.80;;;0.80;;
16127;SDS011;8168;49.036;7.690;2022-07-26T10:23:46;0.85;;;0.85;;
16127;SDS011;8168;49.036;7.690;2022-07-26T10:29:21;1.50;;;1.10;;
16127;SDS011;8168;49.036;7.690;2022-07-26T10:34:31;1.25;;;0.98;;
16127;SDS011;8168;49.036;7.690;2022-07-26T10:37:08;1.33;;;1.08;;
16127;SDS011;8168;49.036;7.690;2022-07-26T10:39:40;1.48;;;1.38;;
16127;SDS011;8168;49.036;7.690;2022-07-26T10:42:10;2.47;;;1.10;;
16127;SDS011;8168;49.036;7.690;2022-07-26T10:44:41;0.82;;;0.82;;
16127;SDS011;8168;49.036;7.690;2022-07-26T10:47:14;0.70;;;0.70;;
16127;SDS011;8168;49.036;7.690;2022-07-26T10:49:54;1.58;;;1.08;;
16127;SDS011;8168;49.036;7.690;2022-07-26T10:52:27;1.52;;;1.00;;
16127;SDS011;8168;49.036;7.690;2022-07-26T10:57:45;1.52;;;1.00;;
16127;SDS011;8168;49.036;7.690;2022-07-26T11:00:18;1.08;;;0.98;;
16127;SDS011;8168;49.036;7.690;2022-07-26T11:02:57;1.45;;;0.85;;
16127;SDS011;8168;49.036;7.690;2022-07-26T11:05:29;2.08;;;1.08;;
16127;SDS011;8168;49.036;7.690;2022-07-26T11:08:04;2.08;;;1.25;;
16127;SDS011;8168;49.036;7.690;2022-07-26T11:10:43;3.15;;;1.20;;
16127;SDS011;8168;49.036;7.690;2022-07-26T11:13:19;2.15;;;1.10;;
16127;SDS011;8168;49.036;7.690;2022-07-26T11:15:59;0.95;;;0.80;;
16127;SDS011;8168;49.036;7.690;2022-07-26T11:18:33;3.40;;;1.00;;
16127;SDS011;8168;49.036;7.690;2022-07-26T11:21:12;1.10;;;1.10;;
16127;SDS011;8168;49.036;7.690;2022-07-26T11:23:45;2.97;;;1.13;;
16127;SDS011;8168;49.036;7.690;2022-07-26T11:26:17;0.98;;;0.93;;
16127;SDS011;8168;49.036;7.690;2022-07-26T11:31:37;0.90;;;0.90;;
16127;SDS011;8168;49.036;7.690;2022-07-26T11:34:19;1.10;;;0.98;;
16127;SDS011;8168;49.036;7.690;2022-07-26T11:36:53;1.17;;;1.10;;
16127;SDS011;8168;49.036;7.690;2022-07-26T11:39:26;1.10;;;0.85;;
16127;SDS011;8168;49.036;7.690;2022-07-26T11:42:05;2.58;;;1.00;;
16127;SDS011;8168;49.036;7.690;2022-07-26T11:44:41;0.73;;;0.73;;
16127;SDS011;8168;49.036;7.690;2022-07-26T11:47:17;3.30;;;1.20;;
16127;SDS011;8168;49.036;7.690;2022-07-26T11:49:49;0.93;;;0.93;;
16127;SDS011;8168;49.036;7.690;2022-07-26T11:52:20;1.00;;;0.80;;
16127;SDS011;8168;49.036;7.690;2022-07-26T11:54:57;1.10;;;0.98;;
16127;SDS011;8168;49.036;7.690;2022-07-26T11:57:28;0.90;;;0.90;;
16127;SDS011;8168;49.036;7.690;2022-07-26T12:00:00;1.00;;;0.98;;
16127;SDS011;8168;49.036;7.690;2022-07-26T12:02:31;1.70;;;1.20;;
16127;SDS011;8168;49.036;7.690;2022-07-26T12:05:18;2.33;;;0.75;;
16127;SDS011;8168;49.036;7.690;2022-07-26T12:07:51;0.90;;;0.90;;
16127;SDS011;8168;49.036;7.690;2022-07-26T12:10:27;2.28;;;1.00;;
16127;SDS011;8168;49.036;7.690;2022-07-26T12:13:08;0.80;;;0.80;;
16127;SDS011;8168;49.036;7.690;2022-07-26T12:15:56;1.40;;;1.02;;
16127;SDS011;8168;49.036;7.690;2022-07-26T12:18:28;1.33;;;0.85;;
16127;SDS011;8168;49.036;7.690;2022-07-26T12:21:01;1.10;;;1.00;;
16127;SDS011;8168;49.036;7.690;2022-07-26T12:23:43;1.27;;;1.17;;
16127;SDS011;8168;49.036;7.690;2022-07-26T12:26:24;2.65;;;1.10;;
16127;SDS011;8168;49.036;7.690;2022-07-26T12:28:57;2.58;;;1.05;;
16127;SDS011;8168;49.036;7.690;2022-07-26T12:32:00;1.55;;;1.10;;
16127;SDS011;8168;49.036;7.690;2022-07-26T12:34:33;1.33;;;1.00;;
16127;SDS011;8168;49.036;7.690;2022-07-26T12:37:15;1.00;;;0.90;;
16127;SDS011;8168;49.036;7.690;2022-07-26T12:42:36;1.30;;;0.80;;
16127;SDS011;8168;49.036;7.690;2022-07-26T12:45:12;1.50;;;0.80;;
16127;SDS011;8168;49.036;7.690;2022-07-26T12:47:43;2.20;;;0.90;;
16127;SDS011;8168;49.036;7.690;2022-07-26T12:50:17;1.85;;;0.80;;
16127;SDS011;8168;49.036;7.690;2022-07-26T12:52:58;1.10;;;0.90;;
16127;SDS011;8168;49.036;7.690;2022-07-26T12:55:33;1.10;;;1.00;;
16127;SDS011;8168;49.036;7.690;2022-07-26T12:58:04;0.85;;;0.85;;
16127;SDS011;8168;49.036;7.690;2022-07-26T13:00:35;1.42;;;0.90;;
16127;SDS011;8168;49.036;7.690;2022-07-26T13:03:06;0.85;;;0.85;;
16127;SDS011;8168;49.036;7.690;2022-07-26T13:05:36;1.02;;;0.88;;
16127;SDS011;8168;49.036;7.690;2022-07-26T13:08:07;1.70;;;1.00;;
16127;SDS011;8168;49.036;7.690;2022-07-26T13:10:39;0.70;;;0.70;;
16127;SDS011;8168;49.036;7.690;2022-07-26T13:13:10;0.90;;;0.80;;
16127;SDS011;8168;49.036;7.690;2022-07-26T13:15:41;0.65;;;0.65;;
16127;SDS011;8168;49.036;7.690;2022-07-26T13:18:13;1.33;;;0.93;;
16127;SDS011;8168;49.036;7.690;2022-07-26T13:20:44;0.90;;;0.80;;
16127;SDS011;8168;49.036;7.690;2022-07-26T13:23:14;1.38;;;0.82;;
16127;SDS011;8168;49.036;7.690;2022-07-26T13:25:45;0.82;;;0.82;;
16127;SDS011;8168;49.036;7.690;2022-07-26T13:28:16;0.80;;;0.80;;
16127;SDS011;8168;49.036;7.690;2022-07-26T13:30:46;0.63;;;0.63;;
16127;SDS011;8168;49.036;7.690;2022-07-26T13:33:17;0.70;;;0.68;;
16127;SDS011;8168;49.036;7.690;2022-07-26T13:35:48;1.15;;;0.85;;
16127;SDS011;8168;49.036;7.690;2022-07-26T13:38:18;0.98;;;0.70;;
16127;SDS011;8168;49.036;7.690;2022-07-26T13:40:49;1.02;;;0.80;;
16127;SDS011;8168;49.036;7.690;2022-07-26T13:43:20;1.40;;;0.95;;
16127;SDS011;8168;49.036;7.690;2022-07-26T13:45:50;1.27;;;1.00;;
16127;SDS011;8168;49.036;7.690;2022-07-26T13:48:21;0.80;;;0.80;;
16127;SDS011;8168;49.036;7.690;2022-07-26T13:50:54;1.48;;;1.00;;
16127;SDS011;8168;49.036;7.690;2022-07-26T13:53:26;1.25;;;0.80;;
16127;SDS011;8168;49.036;7.690;2022-07-26T13:55:58;1.15;;;0.90;;
16127;SDS011;8168;49.036;7.690;2022-07-26T13:58:29;1.00;;;1.00;;
16127;SDS011;8168;49.036;7.690;2022-07-26T14:01:01;1.67;;;1.15;;
16127;SDS011;8168;49.036;7.690;2022-07-26T14:03:32;0.90;;;0.90;;
16127;SDS011;8168;49.036;7.690;2022-07-26T14:06:03;2.15;;;0.98;;
16127;SDS011;8168;49.036;7.690;2022-07-26T14:08:34;0.93;;;0.93;;
16127;SDS011;8168;49.036;7.690;2022-07-26T14:11:04;1.58;;;1.00;;
16127;SDS011;8168;49.036;7.690;2022-07-26T14:13:35;2.42;;;1.00;;
16127;SDS011;8168;49.036;7.690;2022-07-26T14:16:05;0.68;;;0.68;;
16127;SDS011;8168;49.036;7.690;2022-07-26T14:18:36;0.90;;;0.90;;
16127;SDS011;8168;49.036;7.690;2022-07-26T14:21:07;1.48;;;1.17;;
16127;SDS011;8168;49.036;7.690;2022-07-26T14:23:37;2.40;;;1.00;;
16127;SDS011;8168;49.036;7.690;2022-07-26T14:26:08;0.60;;;0.60;;
16127;SDS011;8168;49.036;7.690;2022-07-26T14:28:39;0.70;;;0.70;;
16127;SDS011;8168;49.036;7.690;2022-07-26T14:31:10;0.98;;;0.80;;
16127;SDS011;8168;49.036;7.690;2022-07-26T14:33:40;0.82;;;0.70;;
16127;SDS011;8168;49.036;7.690;2022-07-26T14:36:11;2.50;;;1.10;;
16127;SDS011;8168;49.036;7.690;2022-07-26T14:38:43;2.38;;;1.23;;
16127;SDS011;8168;49.036;7.690;2022-07-26T14:41:14;1.88;;;1.08;;
16127;SDS011;8168;49.036;7.690;2022-07-26T14:43:45;1.80;;;1.13;;
16127;SDS011;8168;49.036;7.690;2022-07-26T14:46:15;0.93;;;0.90;;
16127;SDS011;8168;49.036;7.690;2022-07-26T14:48:46;1.00;;;0.90;;
16127;SDS011;8168;49.036;7.690;2022-07-26T14:51:17;1.17;;;1.05;;
16127;SDS011;8168;49.036;7.690;2022-07-26T14:53:48;1.45;;;0.98;;
16127;SDS011;8168;49.036;7.690;2022-07-26T14:56:18;1.75;;;1.00;;
16127;SDS011;8168;49.036;7.690;2022-07-26T14:58:49;1.35;;;1.00;;
16127;SDS011;8168;49.036;7.690;2022-07-26T15:01:20;1.65;;;1.00;;
16127;SDS011;8168;49.036;7.690;2022-07-26T15:03:50;0.80;;;0.80;;
16127;SDS011;8168;49.036;7.690;2022-07-26T15:06:21;0.88;;;0.88;;
16127;SDS011;8168;49.036;7.690;2022-07-26T15:08:52;1.10;;;1.10;;
16127;SDS011;8168;49.036;7.690;2022-07-26T15:11:23;1.15;;;1.10;;
16127;SDS011;8168;49.036;7.690;2022-07-26T15:13:53;1.27;;;1.02;;
16127;SDS011;8168;49.036;7.690;2022-07-26T15:16:24;1.13;;;0.98;;
16127;SDS011;8168;49.036;7.690;2022-07-26T15:18:55;1.45;;;1.10;;
16127;SDS011;8168;49.036;7.690;2022-07-26T15:21:25;2.28;;;1.27;;
16127;SDS011;8168;49.036;7.690;2022-07-26T15:23:56;3.92;;;1.27;;
16127;SDS011;8168;49.036;7.690;2022-07-26T15:26:27;4.43;;;1.10;;
16127;SDS011;8168;49.036;7.690;2022-07-26T15:28:57;3.83;;;1.10;;
16127;SDS011;8168;49.036;7.690;2022-07-26T15:31:28;1.73;;;1.00;;
16127;SDS011;8168;49.036;7.690;2022-07-26T15:33:59;1.35;;;1.10;;
16127;SDS011;8168;49.036;7.690;2022-07-26T15:36:29;1.10;;;0.90;;
16127;SDS011;8168;49.036;7.690;2022-07-26T15:39:00;1.00;;;0.90;;
16127;SDS011;8168;49.036;7.690;2022-07-26T15:41:31;1.73;;;1.27;;
16127;SDS011;8168;49.036;7.690;2022-07-26T15:44:02;2.40;;;1.35;;
16127;SDS011;8168;49.036;7.690;2022-07-26T15:46:33;1.42;;;1.20;;
16127;SDS011;8168;49.036;7.690;2022-07-26T15:49:04;1.88;;;1.27;;
16127;SDS011;8168;49.036;7.690;2022-07-26T15:51:34;1.77;;;1.40;;
16127;SDS011;8168;49.036;7.690;2022-07-26T15:54:10;1.45;;;1.08;;
16127;SDS011;8168;49.036;7.690;2022-07-26T15:56:41;1.70;;;1.15;;
16127;SDS011;8168;49.036;7.690;2022-07-26T15:59:13;2.95;;;1.15;;